createdAt,value
2019-06-20T00:00:42.388Z,99621.02
2019-06-20T00:03:32.182Z,99619.92
2019-06-20T00:06:22.181Z,99624.60
2019-06-20T00:09:12.321Z,99621.05
2019-06-20T00:12:02.285Z,99615.25
2019-06-20T00:14:52.426Z,99612.20
2019-06-20T00:17:42.738Z,99609.16
2019-06-20T00:20:33.009Z,99601.98
2019-06-20T00:23:22.846Z,99607.92
2019-06-20T00:26:13.560Z,99598.92
2019-06-20T00:29:03.270Z,99600.27
2019-06-20T00:31:53.111Z,99600.53
2019-06-20T00:34:43.205Z,99601.14
2019-06-20T00:37:32.825Z,99606.44
2019-06-20T00:40:22.893Z,99615.45
2019-06-20T00:43:17.468Z,99619.75
2019-06-20T00:46:04.168Z,99626.47
2019-06-20T00:48:53.950Z,99636.20
2019-06-20T00:51:44.655Z,99651.47
2019-06-20T00:54:34.143Z,99692.02
2019-06-20T00:57:23.600Z,99704.89
2019-06-20T01:00:15.286Z,99682.03
2019-06-20T01:03:05.365Z,99708.69
2019-06-20T01:05:55.404Z,99743.61
2019-06-20T01:08:44.863Z,99741.59
2019-06-20T01:11:34.941Z,99720.78
2019-06-20T01:14:24.988Z,99710.32
2019-06-20T01:17:15.313Z,99731.12
2019-06-20T01:20:06.661Z,99730.49
2019-06-20T01:22:56.356Z,99719.47
2019-06-20T01:25:46.171Z,99724.75
2019-06-20T01:28:35.791Z,99739.39
2019-06-20T01:31:25.673Z,99737.80
2019-06-20T01:34:15.929Z,99727.66
2019-06-20T01:37:05.917Z,99735.19
2019-06-20T01:39:55.771Z,99760.88
2019-06-20T01:42:45.120Z,99762.33
2019-06-20T01:45:35.079Z,99751.09
2019-06-20T01:48:24.679Z,99751.09
2019-06-20T01:51:14.606Z,99743.13
2019-06-20T01:54:04.766Z,99732.74
2019-06-20T01:56:55.014Z,99749.60
2019-06-20T01:59:44.927Z,99779.00
2019-06-20T02:02:34.738Z,99758.05
2019-06-20T02:05:24.169Z,99743.94
2019-06-20T02:08:14.100Z,99745.47
2019-06-20T02:11:04.293Z,99726.45
2019-06-20T02:14:06.838Z,99710.86
2019-06-20T02:16:45.658Z,99693.02
2019-06-20T02:19:36.956Z,99695.98
2019-06-20T02:22:26.928Z,99669.55
2019-06-20T02:25:19.985Z,99659.31
2019-06-20T02:28:09.863Z,99659.88
2019-06-20T02:30:59.357Z,99658.55
2019-06-20T02:33:49.091Z,99650.09
2019-06-20T02:36:38.932Z,99641.26
2019-06-20T02:39:29.006Z,99626.34
2019-06-20T02:42:18.070Z,99628.92
2019-06-20T02:45:08.689Z,99641.98
2019-06-20T02:47:58.693Z,99652.41
2019-06-20T02:50:48.267Z,99674.40
2019-06-20T02:53:39.368Z,99696.94
2019-06-20T02:56:29.687Z,99704.36
2019-06-20T02:59:19.546Z,99718.59
2019-06-20T03:02:09.298Z,99725.73
2019-06-20T03:04:59.227Z,99735.61
2019-06-20T03:07:49.085Z,99731.98
2019-06-20T03:10:38.637Z,99730.61
2019-06-20T03:13:29.290Z,99742.65
2019-06-20T03:16:19.027Z,99758.32
2019-06-20T03:19:08.688Z,99756.95
2019-06-20T03:21:58.424Z,99759.70
2019-06-20T03:24:48.455Z,99770.75
2019-06-20T03:27:38.416Z,99761.45
2019-06-20T03:30:28.673Z,99754.32
2019-06-20T03:33:18.936Z,99747.45
2019-06-20T03:36:08.854Z,99744.70
2019-06-20T03:38:58.617Z,99740.34
2019-06-20T03:41:48.786Z,99744.80
2019-06-20T03:44:38.364Z,99753.59
2019-06-20T03:47:27.722Z,99745.09
2019-06-20T03:50:17.502Z,99739.36
2019-06-20T03:53:07.119Z,99750.58
2019-06-20T03:55:57.488Z,99760.70
2019-06-20T03:58:47.717Z,99780.81
2019-06-20T04:01:37.659Z,99796.42
2019-06-20T04:04:27.634Z,99813.67
2019-06-20T04:07:17.648Z,99877.58
2019-06-20T04:10:06.923Z,99935.59
2019-06-20T04:12:56.677Z,99947.62
2019-06-20T04:15:46.863Z,99908.81
2019-06-20T04:18:36.823Z,99944.24
2019-06-20T04:21:27.002Z,99946.65
2019-06-20T04:24:17.207Z,99927.70
2019-06-20T04:27:07.124Z,99946.70
2019-06-20T04:29:56.407Z,99939.31
2019-06-20T04:32:46.408Z,99945.80
2019-06-20T04:35:36.272Z,99942.75
2019-06-20T04:38:26.357Z,99935.72
2019-06-20T04:41:16.066Z,99932.48
2019-06-20T04:44:06.457Z,99928.21
2019-06-20T04:47:04.836Z,99926.98
2019-06-20T04:49:54.411Z,99918.33
2019-06-20T04:52:44.455Z,99914.88
2019-06-20T04:55:34.607Z,99913.98
2019-06-20T04:58:24.338Z,99916.41
2019-06-20T05:01:14.563Z,99925.01
2019-06-20T05:04:04.904Z,99936.17
2019-06-20T05:07:00.666Z,99950.75
2019-06-20T05:09:50.233Z,99945.19
2019-06-20T05:12:40.623Z,99935.16
2019-06-20T05:15:31.562Z,99927.04
2019-06-20T05:18:21.604Z,99936.67
2019-06-20T05:21:11.046Z,99930.98
2019-06-20T05:24:01.981Z,99937.44
2019-06-20T05:26:52.102Z,99947.95
2019-06-20T05:29:41.404Z,99966.28
2019-06-20T05:32:31.413Z,99963.19
2019-06-20T05:35:21.861Z,99965.80
2019-06-20T05:38:11.628Z,99946.18
2019-06-20T05:41:01.686Z,99984.52
2019-06-20T05:43:52.150Z,99992.47
2019-06-20T05:46:41.998Z,99990.77
2019-06-20T05:49:32.013Z,99987.59
2019-06-20T05:52:22.078Z,99973.72
2019-06-20T05:55:12.257Z,99952.08
2019-06-20T05:58:02.040Z,99946.88
2019-06-20T06:00:51.843Z,99941.38
2019-06-20T06:03:41.681Z,99942.83
2019-06-20T06:06:31.564Z,99936.72
2019-06-20T06:09:21.181Z,99922.81
2019-06-20T06:12:11.005Z,99917.93
2019-06-20T06:15:01.054Z,99914.12
2019-06-20T06:17:51.173Z,99914.98
2019-06-20T06:20:44.604Z,99907.84
2019-06-20T06:23:34.374Z,99918.39
2019-06-20T06:26:24.693Z,99918.50
2019-06-20T06:29:14.426Z,99914.19
2019-06-20T06:32:04.753Z,99911.61
2019-06-20T06:34:54.455Z,99912.05
2019-06-20T06:37:44.177Z,99919.97
2019-06-20T06:40:34.610Z,99918.59
2019-06-20T06:43:24.462Z,99918.81
2019-06-20T06:46:14.625Z,99924.98
2019-06-20T06:49:04.681Z,99929.77
2019-06-20T06:51:55.666Z,99926.14
2019-06-20T06:54:45.276Z,99926.03
2019-06-20T06:57:35.226Z,99935.27
2019-06-20T07:00:26.574Z,99931.00
2019-06-20T07:03:16.629Z,99927.69
2019-06-20T07:06:06.750Z,99925.50
2019-06-20T07:08:56.477Z,99915.53
2019-06-20T07:11:46.199Z,99914.21
2019-06-20T07:14:36.234Z,99919.19
2019-06-20T07:17:26.212Z,99912.92
2019-06-20T07:20:16.365Z,99906.85
2019-06-20T07:23:06.404Z,99906.61
2019-06-20T07:25:56.241Z,99896.52
2019-06-20T07:28:46.227Z,99900.59
2019-06-20T07:31:36.549Z,99904.09
2019-06-20T07:34:26.806Z,99904.03
2019-06-20T07:37:17.262Z,99900.39
2019-06-20T07:40:10.158Z,99899.73
2019-06-20T07:42:59.438Z,99903.50
2019-06-20T07:46:02.124Z,99915.50
2019-06-20T07:48:40.011Z,99918.69
2019-06-20T07:51:29.894Z,99917.83
2019-06-20T07:54:19.718Z,99916.21
2019-06-20T07:57:09.597Z,99924.52
2019-06-20T07:59:59.499Z,99926.45
2019-06-20T08:02:48.854Z,99914.59
2019-06-20T08:05:39.253Z,99914.73
2019-06-20T08:08:29.943Z,99920.49
2019-06-20T08:11:19.934Z,99919.27
2019-06-20T08:14:10.058Z,99924.63
2019-06-20T08:16:59.445Z,99923.00
2019-06-20T08:19:48.661Z,99928.16
2019-06-20T08:22:38.319Z,99927.78
2019-06-20T08:25:28.226Z,99920.97
2019-06-20T08:28:18.506Z,99923.93
2019-06-20T08:31:08.537Z,99920.45
2019-06-20T08:33:59.221Z,99918.65
2019-06-20T08:36:50.114Z,99924.87
2019-06-20T08:39:39.871Z,99915.48
2019-06-20T08:42:30.130Z,99905.05
2019-06-20T08:45:24.197Z,99909.09
2019-06-20T08:48:13.851Z,99918.12
2019-06-20T08:51:04.508Z,99913.86
2019-06-20T08:53:55.834Z,99909.17
2019-06-20T08:56:46.644Z,99908.73
2019-06-20T08:59:36.634Z,99915.13
2019-06-20T09:02:26.648Z,99917.44
2019-06-20T09:05:17.551Z,99919.99
2019-06-20T09:08:11.203Z,99918.09
2019-06-20T09:10:59.553Z,99925.59
2019-06-20T09:13:49.111Z,99928.21
2019-06-20T09:16:38.424Z,99922.91
2019-06-20T09:19:28.237Z,99918.57
2019-06-20T09:22:18.213Z,99914.47
2019-06-20T09:25:10.269Z,99913.48
2019-06-20T09:28:00.525Z,99919.23
2019-06-20T09:30:50.693Z,99920.39
2019-06-20T09:33:41.929Z,99923.45
2019-06-20T09:36:31.841Z,99927.98
2019-06-20T09:39:22.179Z,99931.19
2019-06-20T09:42:12.189Z,99932.02
2019-06-20T09:45:03.536Z,99937.97
2019-06-20T09:47:53.756Z,99941.04
2019-06-20T09:50:43.697Z,99943.67
2019-06-20T09:53:33.829Z,99937.11
2019-06-20T09:56:23.619Z,99950.55
2019-06-20T09:59:26.871Z,99951.62
2019-06-20T10:02:04.812Z,99964.03
2019-06-20T10:04:54.555Z,99964.65
2019-06-20T10:07:45.554Z,99971.59
2019-06-20T10:10:37.132Z,99961.26
2019-06-20T10:13:26.806Z,99961.67
2019-06-20T10:16:16.771Z,99966.70
2019-06-20T10:19:07.259Z,99959.77
2019-06-20T10:21:57.443Z,99956.34
2019-06-20T10:24:47.440Z,99960.46
2019-06-20T10:27:36.883Z,99962.27
2019-06-20T10:30:28.838Z,99959.81
2019-06-20T10:33:19.036Z,99959.89
2019-06-20T10:36:09.199Z,99959.11
2019-06-20T10:38:58.812Z,99959.56
2019-06-20T10:41:50.262Z,99959.27
2019-06-20T10:44:39.360Z,99957.16
2019-06-20T10:47:34.955Z,99953.69
2019-06-20T10:50:22.633Z,99960.63
2019-06-20T10:53:13.659Z,99965.28
2019-06-20T10:56:03.329Z,99966.25
2019-06-20T10:58:53.204Z,99969.84
2019-06-20T11:01:44.292Z,99968.45
2019-06-20T11:04:34.247Z,99970.17
2019-06-20T11:07:24.071Z,99969.05
2019-06-20T11:10:14.389Z,99969.59
2019-06-20T11:13:04.223Z,99973.73
2019-06-20T11:15:54.334Z,99970.86
2019-06-20T11:18:44.473Z,99973.32
2019-06-20T11:21:34.450Z,99974.48
2019-06-20T11:24:24.605Z,99971.91
2019-06-20T11:27:14.830Z,99974.67
2019-06-20T11:30:06.869Z,99978.44
2019-06-20T11:32:56.759Z,99976.02
2019-06-20T11:35:47.968Z,99976.13
2019-06-20T11:38:39.021Z,99976.86
2019-06-20T11:41:29.902Z,99970.44
2019-06-20T11:44:19.320Z,99970.45
2019-06-20T11:47:08.789Z,99970.45
2019-06-20T11:49:59.327Z,99971.11
2019-06-20T11:52:49.207Z,99962.73
2019-06-20T11:55:39.048Z,99961.64
2019-06-20T11:58:29.077Z,99961.34
2019-06-20T12:01:32.220Z,99957.25
2019-06-20T12:04:11.038Z,99958.73
2019-06-20T12:07:00.724Z,99952.59
2019-06-20T12:09:51.127Z,99949.36
2019-06-20T12:12:41.380Z,99948.14
2019-06-20T12:15:31.802Z,99952.63
2019-06-20T12:18:21.992Z,99946.33
2019-06-20T12:21:11.972Z,99939.10
2019-06-20T12:24:02.218Z,99936.26
2019-06-20T12:26:51.896Z,99933.91
2019-06-20T12:29:42.174Z,99941.41
2019-06-20T12:32:32.466Z,99927.81
2019-06-20T12:35:22.305Z,99929.91
2019-06-20T12:38:15.274Z,99930.75
2019-06-20T12:41:05.424Z,99930.05
2019-06-20T12:43:55.337Z,99924.06
2019-06-20T12:46:45.285Z,99925.36
2019-06-20T12:49:37.252Z,99923.15
2019-06-20T12:52:29.151Z,99921.05
2019-06-20T12:55:19.298Z,99916.94
2019-06-20T12:58:09.214Z,99919.48
2019-06-20T13:00:59.566Z,99925.08
2019-06-20T13:03:50.554Z,99919.66
2019-06-20T13:06:42.219Z,99925.36
2019-06-20T13:09:32.003Z,99932.25
2019-06-20T13:12:22.305Z,99935.06
2019-06-20T13:15:13.188Z,99933.92
2019-06-20T13:18:03.035Z,99930.67
2019-06-20T13:20:52.903Z,99927.00
2019-06-20T13:23:43.241Z,99924.66
2019-06-20T13:26:34.470Z,99926.16
2019-06-20T13:29:24.884Z,99924.59
2019-06-20T13:32:14.567Z,99919.87
2019-06-20T13:35:05.093Z,99927.04
2019-06-20T13:37:54.923Z,99920.29
2019-06-20T13:40:45.376Z,99912.34
2019-06-20T13:43:35.415Z,99908.38
2019-06-20T13:46:24.786Z,99912.25
2019-06-20T13:49:14.789Z,99913.98
2019-06-20T13:52:05.160Z,99918.15
2019-06-20T13:54:55.249Z,99915.02
2019-06-20T13:57:47.038Z,99914.79
2019-06-20T14:00:37.176Z,99910.61
2019-06-20T14:03:27.048Z,99907.98
2019-06-20T14:06:17.127Z,99904.76
2019-06-20T14:09:07.529Z,99904.09
2019-06-20T14:11:57.226Z,99900.66
2019-06-20T14:14:47.857Z,99902.66
2019-06-20T14:17:37.668Z,99909.69
2019-06-20T14:20:27.936Z,99900.88
2019-06-20T14:23:17.937Z,99903.55
2019-06-20T14:26:08.047Z,99901.06
2019-06-20T14:28:58.621Z,99901.20
2019-06-20T14:31:49.238Z,99904.98
2019-06-20T14:34:38.817Z,99900.74
2019-06-20T14:37:28.423Z,99902.52
2019-06-20T14:40:19.404Z,99905.62
2019-06-20T14:43:09.391Z,99908.56
2019-06-20T14:45:59.011Z,99907.22
2019-06-20T14:48:50.102Z,99898.84
2019-06-20T14:51:41.571Z,99897.69
2019-06-20T14:54:31.381Z,99890.39
2019-06-20T14:57:21.883Z,99884.97
2019-06-20T15:00:12.786Z,99885.91
2019-06-20T15:03:02.586Z,99887.47
2019-06-20T15:05:52.628Z,99894.00
2019-06-20T15:08:43.982Z,99898.27
2019-06-20T15:11:34.726Z,99894.87
2019-06-20T15:14:24.142Z,99889.11
2019-06-20T15:17:14.036Z,99885.92
2019-06-20T15:20:03.755Z,99878.53
2019-06-20T15:22:54.667Z,99884.59
2019-06-20T15:25:45.824Z,99878.03
2019-06-20T15:28:36.200Z,99872.80
2019-06-20T15:31:26.628Z,99867.16
2019-06-20T15:34:16.390Z,99866.34
2019-06-20T15:37:06.534Z,99865.92
2019-06-20T15:39:57.473Z,99865.37
2019-06-20T15:42:49.599Z,99864.59
2019-06-20T15:45:38.730Z,99866.17
2019-06-20T15:48:27.857Z,99868.97
2019-06-20T15:51:17.360Z,99870.17
2019-06-20T15:54:07.302Z,99870.33
2019-06-20T15:56:56.957Z,99870.23
2019-06-20T15:59:46.766Z,99874.64
2019-06-20T16:02:37.194Z,99875.48
2019-06-20T16:05:26.845Z,99870.33
2019-06-20T16:08:17.526Z,99874.72
2019-06-20T16:11:07.308Z,99879.37
2019-06-20T16:13:58.302Z,99881.27
2019-06-20T16:16:48.273Z,99885.76
2019-06-20T16:19:37.796Z,99887.00
2019-06-20T16:22:27.821Z,99888.42
2019-06-20T16:25:17.426Z,99893.67
2019-06-20T16:28:07.240Z,99891.34
2019-06-20T16:31:08.382Z,99895.62
2019-06-20T16:33:50.236Z,99892.27
2019-06-20T16:36:40.369Z,99898.95
2019-06-20T16:39:30.641Z,99906.18
2019-06-20T16:42:20.002Z,99905.95
2019-06-20T16:45:10.760Z,99916.95
2019-06-20T16:48:01.212Z,99913.09
2019-06-20T16:50:50.691Z,99910.98
2019-06-20T16:53:40.895Z,99923.56
2019-06-20T16:56:30.482Z,99915.73
2019-06-20T16:59:20.701Z,99917.27
2019-06-20T17:02:10.528Z,99917.98
2019-06-20T17:05:13.487Z,99914.33
2019-06-20T17:08:03.285Z,99910.08
2019-06-20T17:10:53.161Z,99918.20
2019-06-20T17:13:43.174Z,99917.30
2019-06-20T17:16:33.294Z,99920.59
2019-06-20T17:19:23.237Z,99930.63
2019-06-20T17:22:13.210Z,99936.91
2019-06-20T17:25:02.990Z,99938.16
2019-06-20T17:27:52.473Z,99944.98
2019-06-20T17:30:43.024Z,99948.64
2019-06-20T17:33:33.048Z,99954.79
2019-06-20T17:36:23.062Z,99958.38
2019-06-20T17:39:13.102Z,99952.95
2019-06-20T17:42:02.917Z,99950.92
2019-06-20T17:44:53.097Z,99946.34
2019-06-20T17:47:43.354Z,99939.08
2019-06-20T17:50:34.499Z,99933.92
2019-06-20T17:53:24.303Z,99929.25
2019-06-20T17:56:17.964Z,99942.85
2019-06-20T17:59:07.472Z,99945.09
2019-06-20T18:01:57.204Z,99936.94
2019-06-20T18:04:47.189Z,99937.89
2019-06-20T18:07:37.106Z,99947.48
2019-06-20T18:10:27.458Z,99955.64
2019-06-20T18:13:17.190Z,99958.68
2019-06-20T18:16:06.979Z,99957.31
2019-06-20T18:18:56.744Z,99952.95
2019-06-20T18:21:46.892Z,99961.34
2019-06-20T18:24:36.526Z,99969.48
2019-06-20T18:27:26.335Z,99971.95
2019-06-20T18:30:17.119Z,99977.52
2019-06-20T18:33:07.727Z,99972.78
2019-06-20T18:35:57.895Z,99980.34
2019-06-20T18:38:47.775Z,99985.81
2019-06-20T18:41:37.700Z,99988.84
2019-06-20T18:44:27.762Z,99990.72
2019-06-20T18:47:17.652Z,99991.41
2019-06-20T18:50:08.778Z,99993.28
2019-06-20T18:52:58.978Z,99993.16
2019-06-20T18:55:48.798Z,99994.22
2019-06-20T18:58:38.677Z,100002.80
2019-06-20T19:01:29.070Z,100004.78
2019-06-20T19:04:18.893Z,100008.12
2019-06-20T19:07:08.920Z,100019.26
2019-06-20T19:09:59.043Z,100016.93
2019-06-20T19:12:49.316Z,100016.73
2019-06-20T19:15:39.378Z,100018.47
2019-06-20T19:18:29.635Z,100021.70
2019-06-20T19:21:19.225Z,100029.81
2019-06-20T19:24:09.397Z,100034.50
2019-06-20T19:27:00.223Z,100040.73
2019-06-20T19:29:50.325Z,100047.56
2019-06-20T19:32:40.033Z,100044.86
2019-06-20T19:35:30.170Z,100051.80
2019-06-20T19:38:20.327Z,100055.59
2019-06-20T19:41:10.568Z,100057.55
2019-06-20T19:44:01.087Z,100069.09
2019-06-20T19:46:51.237Z,100064.42
2019-06-20T19:49:44.394Z,100069.58
2019-06-20T19:52:33.725Z,100083.06
2019-06-20T19:55:23.457Z,100079.11
2019-06-20T19:58:13.108Z,100078.75
2019-06-20T20:01:03.089Z,100076.53
2019-06-20T20:03:53.327Z,100093.92
2019-06-20T20:06:43.265Z,100096.31
2019-06-20T20:09:33.161Z,100095.95
2019-06-20T20:12:22.568Z,100089.81
2019-06-20T20:15:13.083Z,100092.78
2019-06-20T20:18:03.216Z,100094.61
2019-06-20T20:20:54.191Z,100104.74
2019-06-20T20:23:43.819Z,100108.59
2019-06-20T20:26:33.224Z,100120.57
2019-06-20T20:29:22.991Z,100115.44
2019-06-20T20:32:13.052Z,100118.52
2019-06-20T20:35:02.973Z,100119.36
2019-06-20T20:37:52.492Z,100113.50
2019-06-20T20:40:42.769Z,100114.20
2019-06-20T20:43:33.821Z,100118.09
2019-06-20T20:46:23.403Z,100132.81
2019-06-20T20:49:13.531Z,100131.72
2019-06-20T20:52:03.421Z,100146.92
2019-06-20T20:54:53.477Z,100148.08
2019-06-20T20:57:44.121Z,100143.64
2019-06-20T21:00:45.898Z,100147.22
2019-06-20T21:03:35.190Z,100149.03
2019-06-20T21:06:25.337Z,100153.62
2019-06-20T21:09:15.506Z,100152.70
2019-06-20T21:12:05.855Z,100149.59
2019-06-20T21:14:55.739Z,100148.37
2019-06-20T21:17:46.035Z,100143.81
2019-06-20T21:20:35.391Z,100143.75
2019-06-20T21:23:25.175Z,100146.58
2019-06-20T21:26:16.091Z,100153.78
2019-06-20T21:29:06.161Z,100149.67
2019-06-20T21:31:56.306Z,100154.31
2019-06-20T21:34:46.090Z,100163.34
2019-06-20T21:37:36.215Z,100160.83
2019-06-20T21:40:26.034Z,100167.66
2019-06-20T21:43:15.702Z,100163.49
2019-06-20T21:46:06.987Z,100171.10
2019-06-20T21:48:57.306Z,100165.76
2019-06-20T21:51:47.173Z,100170.88
2019-06-20T21:54:36.560Z,100177.36
2019-06-20T21:57:26.462Z,100175.63
2019-06-20T22:00:25.489Z,100188.11
2019-06-20T22:03:16.784Z,100197.84
2019-06-20T22:06:20.207Z,100204.82
2019-06-20T22:08:58.506Z,100207.12
2019-06-20T22:11:48.130Z,100217.34
2019-06-20T22:14:38.261Z,100221.80
2019-06-20T22:17:27.685Z,100214.72
2019-06-20T22:20:19.621Z,100224.13
2019-06-20T22:23:09.819Z,100229.73
2019-06-20T22:26:00.045Z,100220.98
2019-06-20T22:28:50.079Z,100221.61
2019-06-20T22:31:39.583Z,100224.69
2019-06-20T22:34:29.753Z,100226.38
2019-06-20T22:37:18.912Z,100225.61
2019-06-20T22:40:11.250Z,100228.12
2019-06-20T22:43:01.793Z,100226.78
2019-06-20T22:45:51.886Z,100230.17
2019-06-20T22:48:41.703Z,100237.95
2019-06-20T22:51:31.679Z,100239.14
2019-06-20T22:54:21.208Z,100236.74
2019-06-20T22:57:11.084Z,100242.84
2019-06-20T23:00:00.534Z,100243.70
2019-06-20T23:02:50.559Z,100248.11
2019-06-20T23:05:40.872Z,100250.92
2019-06-20T23:08:30.897Z,100248.73
2019-06-20T23:11:20.993Z,100245.16
2019-06-20T23:14:10.639Z,100243.51
2019-06-20T23:17:00.421Z,100244.37
2019-06-20T23:19:50.115Z,100232.59
2019-06-20T23:22:40.168Z,100230.44
2019-06-20T23:25:29.777Z,100235.11
2019-06-20T23:28:19.346Z,100239.55
2019-06-20T23:31:09.224Z,100244.81
2019-06-20T23:33:59.202Z,100243.51
2019-06-20T23:36:51.208Z,100254.27
2019-06-20T23:39:40.938Z,100260.14
2019-06-20T23:42:30.783Z,100254.41
2019-06-20T23:45:21.188Z,100253.66
2019-06-20T23:48:11.246Z,100250.95
2019-06-20T23:51:01.660Z,100255.39
2019-06-20T23:53:51.476Z,100264.45
2019-06-20T23:56:41.429Z,100058.08
2019-06-20T23:59:31.473Z,100262.09
